Stockholm, New Jersey
Current Conditions -  °F | °C
As of 12:53 AM on Friday 28 Nov 2014 (Local Time) from KFWN Reporting Station
Clear Clear  
Wind Chill: 24°   Ceiling: Unl
Heat Index: 24°   Visibility: 10mi
Dew Point: 21°   Wind: 3mph
Humidity: 88%   Direction: 270°W
Pressure: 30.06"   Gusts: NA
Location:  41.09°N, 74.52°W
Report Text: KFWN 280553Z AUTO 27003KT 10SM CLR M04/M06 A3006 RMK AO2 SLP183 T10441061 10006 21044 57002
Loading
Personal Weather Stations






























Interactive Weather Map New forecast layout! Learn more

10-Day Weather Forecast

Advertisements
Track Severe Weather on mobile